Time;durP1;ratioP1;P1;durP2;ratioP2;P2;SDS_P1;SDS_P2;PMS_P1;PMS_P2;Temp;Humidity;BMP_temperature;BMP_pressure;BME280_temperature;BME280_humidity;BME280_pressure;Samples;Min_cycle;Max_cycle;Signal;HPM_P1;HPM_P2
2022/04/06 00:00:31;;;;;;;4.88;3.60;;;;;;;7.23;94.34;95918.84;2068417;28;20219;-65
2022/04/06 00:01:34;;;;;;;3.50;3.15;;;;;;;7.25;94.14;95922.19;2068895;28;20199;-64
2022/04/06 00:02:40;;;;;;;6.20;3.33;;;;;;;7.20;93.93;95911.22;2067730;28;20203;-64
2022/04/06 00:03:43;;;;;;;3.85;2.97;;;;;;;7.20;94.15;95906.03;2067972;28;20220;-64
2022/04/06 00:04:45;;;;;;;3.38;2.90;;;;;;;7.27;94.03;95912.50;2066022;28;20214;-65
2022/04/06 00:05:46;;;;;;;5.82;2.92;;;;;;;7.26;94.42;95916.03;2066525;28;20553;-65
2022/04/06 00:06:48;;;;;;;9.20;2.80;;;;;;;7.27;93.87;95912.50;2066654;28;20205;-64
2022/04/06 00:07:51;;;;;;;6.15;3.25;;;;;;;7.27;94.02;95917.72;2068421;28;20657;-64
2022/04/06 00:08:53;;;;;;;5.55;2.80;;;;;;;7.20;94.44;95902.59;2068332;28;20214;-65
2022/04/06 00:09:54;;;;;;;4.30;2.78;;;;;;;7.23;94.48;95905.84;2076748;28;20201;-64
2022/04/06 00:10:57;;;;;;;4.78;2.75;;;;;;;7.22;94.40;95906.75;2077027;28;20201;-65
2022/04/06 00:11:58;;;;;;;9.68;2.75;;;;;;;7.24;94.43;95906.66;2070295;28;20558;-64
2022/04/06 00:13:00;;;;;;;4.88;3.08;;;;;;;7.26;93.90;95910.00;2070050;28;20664;-64
2022/04/06 00:14:02;;;;;;;3.53;2.70;;;;;;;7.17;94.00;95890.59;2065571;28;20233;-65
2022/04/06 00:15:06;;;;;;;4.60;2.50;;;;;;;7.27;94.17;95901.22;2067075;28;20210;-64
2022/04/06 00:16:07;;;;;;;4.65;2.90;;;;;;;7.14;94.11;95888.19;2066441;28;20841;-64
2022/04/06 00:17:10;;;;;;;3.47;2.70;;;;;;;7.25;94.15;95905.72;2067452;28;20201;-64
2022/04/06 00:18:12;;;;;;;5.25;3.67;;;;;;;7.24;94.24;95907.50;2068619;28;20206;-64
2022/04/06 00:19:14;;;;;;;4.10;3.20;;;;;;;7.09;94.34;95875.47;2068421;28;20197;-64
2022/04/06 00:20:16;;;;;;;4.53;2.75;;;;;;;7.25;94.45;95905.72;2068056;28;20229;-64
2022/04/06 00:21:19;;;;;;;3.50;3.17;;;;;;;7.25;94.32;95893.53;2067809;28;20193;-64
2022/04/06 00:22:20;;;;;;;3.20;2.80;;;;;;;7.24;94.23;95897.06;2069700;28;20265;-65
2022/04/06 00:23:22;;;;;;;3.88;2.90;;;;;;;7.24;94.15;95897.06;2066694;28;20682;-65
2022/04/06 00:24:24;;;;;;;6.13;3.85;;;;;;;7.25;94.27;95895.28;2067280;28;20198;-65
2022/04/06 00:25:25;;;;;;;4.20;3.00;;;;;;;7.19;94.14;95887.88;2067827;28;20225;-65
2022/04/06 00:26:27;;;;;;;5.55;3.05;;;;;;;7.24;94.18;95894.47;2070084;28;20739;-64
2022/04/06 00:27:28;;;;;;;4.05;2.90;;;;;;;7.24;94.27;95893.63;2070999;28;20198;-64
2022/04/06 00:28:30;;;;;;;5.70;3.63;;;;;;;7.22;94.18;95885.91;2069481;28;20194;-64
2022/04/06 00:29:32;;;;;;;7.05;3.25;;;;;;;7.21;94.22;95888.63;2066434;28;20650;-64
2022/04/06 00:30:34;;;;;;;4.72;3.55;;;;;;;7.23;94.12;95895.41;2064566;28;20579;-64
2022/04/06 00:31:35;;;;;;;6.38;3.30;;;;;;;7.24;94.18;95891.84;2067531;28;20284;-65
2022/04/06 00:32:37;;;;;;;4.88;3.00;;;;;;;7.04;94.18;95855.91;2065504;28;20209;-64
2022/04/06 00:33:39;;;;;;;7.10;4.03;;;;;;;7.20;94.14;95885.19;2065958;28;20199;-65
2022/04/06 00:36:00;;;;;;;4.70;2.65;;;;;;;7.25;93.78;95890.09;2067959;28;20206;-65
2022/04/06 00:37:01;;;;;;;3.92;2.85;;;;;;;7.22;93.92;95892.91;2068293;28;20197;-65
2022/04/06 00:38:05;;;;;;;3.15;2.53;;;;;;;7.26;93.78;95889.97;2069837;28;20198;-65
2022/04/06 00:39:07;;;;;;;4.35;3.00;;;;;;;7.23;93.89;95884.13;2069348;28;20197;-64
2022/04/06 00:40:09;;;;;;;4.05;2.80;;;;;;;7.26;93.65;95894.38;2069653;28;20264;-65
2022/04/06 00:41:11;;;;;;;4.55;2.75;;;;;;;7.25;93.69;95892.69;2070956;28;20208;-63
2022/04/06 00:42:12;;;;;;;4.30;3.10;;;;;;;7.29;93.82;95896.75;2068954;28;20198;-63
2022/04/06 00:43:14;;;;;;;3.17;2.60;;;;;;;7.19;93.89;95883.50;2069497;28;20198;-63
2022/04/06 00:44:17;;;;;;;3.00;2.40;;;;;;;7.25;93.89;95901.34;2069064;28;20209;-63
2022/04/06 00:45:23;;;;;;;3.65;2.65;;;;;;;7.24;93.37;95881.44;2067848;28;20234;-63
2022/04/06 00:46:24;;;;;;;4.90;3.08;;;;;;;7.28;93.63;95890.72;2065663;28;20400;-63
2022/04/06 00:47:26;;;;;;;4.70;3.05;;;;;;;7.30;93.63;95880.19;2070886;28;20756;-63
2022/04/06 00:48:28;;;;;;;2.65;2.45;;;;;;;7.29;93.46;95884.59;2070824;28;20198;-63
2022/04/06 00:49:30;;;;;;;5.03;2.97;;;;;;;7.25;93.61;95885.72;2068002;28;20291;-63
2022/04/06 00:50:32;;;;;;;3.40;3.00;;;;;;;7.23;93.67;95885.00;2066256;28;20221;-63
2022/04/06 00:51:34;;;;;;;7.38;2.65;;;;;;;7.22;93.68;95874.69;2067451;28;20198;-63
2022/04/06 00:52:36;;;;;;;4.65;2.45;;;;;;;7.24;93.82;95873.63;2067106;28;20199;-64
2022/04/06 00:53:38;;;;;;;10.40;2.90;;;;;;;7.18;93.71;95860.19;2067380;28;20213;-64
2022/04/06 00:54:40;;;;;;;4.68;3.33;;;;;;;7.26;93.79;95876.97;2067830;28;20201;-64
2022/04/06 00:55:41;;;;;;;3.60;2.65;;;;;;;7.26;93.70;95874.34;2069050;28;20701;-63
2022/04/06 00:56:44;;;;;;;2.63;2.42;;;;;;;7.25;93.44;95869.25;2079078;28;20204;-63
2022/04/06 00:57:45;;;;;;;4.95;2.55;;;;;;;7.18;93.63;95866.22;2078966;28;20201;-64
2022/04/06 00:58:47;;;;;;;3.00;2.58;;;;;;;7.27;93.50;95870.84;2066819;28;20206;-64
2022/04/06 00:59:50;;;;;;;3.30;2.70;;;;;;;7.11;93.19;95838.91;2067965;28;20194;-64
2022/04/06 01:00:52;;;;;;;3.58;2.30;;;;;;;7.23;93.57;95863.31;2070029;28;20205;-64
2022/04/06 01:01:53;;;;;;;3.38;2.53;;;;;;;7.24;93.54;95859.78;2070115;28;20221;-64
2022/04/06 01:02:55;;;;;;;5.05;2.78;;;;;;;7.15;93.95;95852.56;2068452;28;20670;-63
2022/04/06 01:03:57;;;;;;;7.72;3.00;;;;;;;7.13;94.10;95840.50;2067903;28;20251;-64
2022/04/06 01:04:59;;;;;;;4.03;2.75;;;;;;;7.23;93.65;95864.16;2067379;28;20313;-64
2022/04/06 01:06:00;;;;;;;3.13;2.80;;;;;;;7.27;93.36;95868.22;2067576;28;20666;-63
2022/04/06 01:07:02;;;;;;;4.43;2.88;;;;;;;7.24;93.36;95860.59;2068824;28;20217;-64
2022/04/06 01:08:04;;;;;;;3.90;2.55;;;;;;;7.26;93.29;95858.72;2067953;28;20568;-64
2022/04/06 01:09:05;;;;;;;4.32;2.75;;;;;;;7.28;93.22;95861.25;2067432;28;20202;-64
2022/04/06 01:10:07;;;;;;;5.05;2.85;;;;;;;7.27;93.38;95860.41;2066649;28;20217;-63
2022/04/06 01:11:08;;;;;;;6.32;2.83;;;;;;;7.26;92.94;95861.34;2067745;28;20201;-64
2022/04/06 01:12:10;;;;;;;3.20;2.08;;;;;;;7.22;92.98;95849.47;2070169;28;20208;-64
2022/04/06 01:13:13;;;;;;;3.58;2.55;;;;;;;7.26;92.94;95852.69;2070798;28;20580;-64
2022/04/06 01:14:15;;;;;;;2.15;1.95;;;;;;;7.24;93.16;95849.38;2067557;28;20202;-63
2022/04/06 01:15:18;;;;;;;3.30;2.60;;;;;;;7.31;92.79;95855.81;2067268;28;20734;-64
2022/04/06 01:16:19;;;;;;;3.03;2.25;;;;;;;7.33;92.53;95862.59;2067663;28;20202;-64
2022/04/06 01:17:21;;;;;;;3.97;2.67;;;;;;;7.31;92.42;95861.88;2069339;28;20202;-64
2022/04/06 01:18:22;;;;;;;2.42;1.90;;;;;;;7.24;92.38;95844.97;2069165;28;20194;-63
2022/04/06 01:19:29;;;;;;;4.65;3.00;;;;;;;7.31;92.22;95854.06;2068737;28;20198;-64
2022/04/06 01:20:31;;;;;;;4.90;2.83;;;;;;;7.36;92.44;95860.72;2067383;28;20997;-64
2022/04/06 01:21:33;;;;;;;5.43;3.17;;;;;;;7.36;92.60;95861.56;2065167;28;20658;-64
2022/04/06 01:22:35;;;;;;;2.80;2.35;;;;;;;7.36;92.39;95868.53;2068152;28;20649;-64
2022/04/06 01:23:40;;;;;;;4.40;2.50;;;;;;;7.27;92.26;95843.94;2067450;28;20207;-64
2022/04/06 01:24:44;;;;;;;2.95;2.25;;;;;;;7.35;92.14;95867.72;2067370;28;20228;-63
2022/04/06 01:25:49;;;;;;;4.18;2.95;;;;;;;7.40;92.10;95862.19;2070333;28;20221;-64
2022/04/06 01:26:51;;;;;;;3.90;2.75;;;;;;;7.38;92.20;95866.66;2070847;28;20210;-64
2022/04/06 01:27:53;;;;;;;2.70;2.20;;;;;;;7.37;92.40;95859.78;2068073;28;20195;-64
2022/04/06 01:28:54;;;;;;;3.30;2.53;;;;;;;7.38;92.34;95866.66;2075646;28;20201;-64
2022/04/06 01:29:55;;;;;;;8.60;2.63;;;;;;;7.37;92.21;95862.38;2076018;28;20684;-64
2022/04/06 01:30:57;;;;;;;4.88;2.90;;;;;;;7.35;92.25;95862.50;2069387;28;20204;-64
2022/04/06 01:32:13;;;;;;;2.88;2.40;;;;;;;7.38;92.25;95864.88;2077033;28;20248;-64
2022/04/06 01:33:14;;;;;;;5.80;2.67;;;;;;;7.38;92.28;95867.50;2071952;28;20189;-64
2022/04/06 01:34:16;;;;;;;4.35;3.35;;;;;;;7.37;92.32;95865.84;2069241;28;20195;-64
2022/04/06 01:35:17;;;;;;;7.15;2.58;;;;;;;7.32;92.54;95857.50;2067436;28;20236;-64
2022/04/06 01:36:19;;;;;;;3.35;2.80;;;;;;;7.35;92.50;95862.50;2066771;28;20213;-64
2022/04/06 01:37:22;;;;;;;4.13;2.83;;;;;;;7.37;92.50;95865.84;2067876;28;20202;-64
2022/04/06 01:38:24;;;;;;;4.60;2.67;;;;;;;7.37;92.32;95867.59;2069765;28;20194;-64
2022/04/06 01:39:25;;;;;;;3.55;2.75;;;;;;;7.35;92.59;95861.66;2064842;28;20209;-63
2022/04/06 01:40:27;;;;;;;4.35;3.20;;;;;;;7.36;92.64;95864.16;2067049;28;20234;-64
2022/04/06 01:41:33;;;;;;;4.65;3.55;;;;;;;7.32;92.39;95858.31;2069205;28;20202;-64
2022/04/06 01:42:34;;;;;;;5.35;3.92;;;;;;;7.29;92.67;95860.28;2067830;28;20568;-64
2022/04/06 01:43:36;;;;;;;5.10;3.50;;;;;;;7.31;92.66;95858.41;2066824;28;20223;-63
2022/04/06 01:44:37;;;;;;;7.90;4.32;;;;;;;7.19;92.65;95835.81;2067441;28;20205;-63
2022/04/06 01:45:39;;;;;;;6.35;3.30;;;;;;;7.31;92.49;95850.59;2067589;28;20217;-64
2022/04/06 01:46:40;;;;;;;4.00;3.45;;;;;;;7.31;92.56;95851.47;2067100;28;20198;-64
2022/04/06 01:47:42;;;;;;;6.30;4.13;;;;;;;7.29;92.49;95852.47;2069317;28;20237;-64
2022/04/06 01:52:44;;;;;;;4.28;3.55;;;;;;;7.15;92.86;95829.97;2068362;28;20221;-63
2022/04/06 01:53:50;;;;;;;5.05;4.13;;;;;;;7.09;92.95;95826.00;2077843;28;20204;-63
2022/04/06 01:54:54;;;;;;;7.93;4.50;;;;;;;7.26;93.17;95852.69;2075375;28;20197;-64
2022/04/06 01:55:57;;;;;;;5.97;4.18;;;;;;;7.22;93.39;95846.03;2069369;28;20210;-64
2022/04/06 01:56:58;;;;;;;6.28;4.75;;;;;;;7.21;93.69;95844.34;2066955;28;20199;-64
2022/04/06 01:58:00;;;;;;;8.15;4.80;;;;;;;7.13;93.78;95842.25;2070124;28;20229;-64
2022/04/06 01:59:01;;;;;;;6.85;4.78;;;;;;;7.20;93.98;95846.13;2069334;28;20195;-64
2022/04/06 02:00:16;;;;;;;7.60;3.95;;;;;;;7.14;94.42;95838.72;2068269;28;20554;-65
2022/04/06 02:01:19;;;;;;;10.32;5.00;;;;;;;7.17;94.58;95848.09;2069275;28;20206;-63
2022/04/06 02:02:23;;;;;;;6.57;4.32;;;;;;;7.08;94.61;95826.13;2070607;28;20197;-64
2022/04/06 02:03:25;;;;;;;7.10;4.20;;;;;;;7.20;94.59;95843.53;2069841;28;20229;-63
2022/04/06 02:04:27;;;;;;;7.20;4.63;;;;;;;7.16;94.52;95843.84;2068838;28;20285;-63
2022/04/06 02:05:33;;;;;;;6.43;5.25;;;;;;;7.16;94.52;95839.47;2066637;28;20256;-63
2022/04/06 02:06:35;;;;;;;6.53;5.07;;;;;;;7.15;94.81;95847.38;2069199;28;20241;-63
2022/04/06 02:07:36;;;;;;;6.65;4.95;;;;;;;7.09;94.97;95840.78;2070427;28;20218;-64
2022/04/06 02:08:38;;;;;;;7.45;4.97;;;;;;;7.14;95.19;95843.94;2072092;28;20206;-63
2022/04/06 02:09:40;;;;;;;13.00;5.53;;;;;;;7.11;95.26;95839.78;2067303;28;20205;-63
2022/04/06 02:10:42;;;;;;;9.52;5.68;;;;;;;7.12;95.14;95838.00;2069503;28;20218;-64
2022/04/06 02:11:44;;;;;;;7.32;5.10;;;;;;;7.01;95.29;95819.66;2069569;28;20205;-64
2022/04/06 02:12:46;;;;;;;8.40;5.20;;;;;;;7.05;95.32;95832.34;2069462;28;20194;-63
2022/04/06 02:13:48;;;;;;;6.20;4.85;;;;;;;7.10;95.43;95839.88;2069948;28;20204;-63
2022/04/06 02:14:49;;;;;;;7.95;4.88;;;;;;;7.06;95.42;95831.44;2070181;28;20205;-64
2022/04/06 02:15:51;;;;;;;8.95;5.78;;;;;;;7.09;95.44;95840.78;2069633;28;20197;-64
2022/04/06 02:16:53;;;;;;;10.80;5.30;;;;;;;7.04;95.71;95833.31;2075390;28;20208;-64
2022/04/06 02:17:54;;;;;;;9.93;6.18;;;;;;;7.04;95.74;95835.09;2075789;28;20404;-63
2022/04/06 02:18:56;;;;;;;6.20;4.75;;;;;;;7.04;95.75;95829.88;2070216;28;20257;-64
2022/04/06 02:19:58;;;;;;;7.40;6.05;;;;;;;6.99;95.62;95829.34;2067890;28;20202;-63
2022/04/06 02:20:59;;;;;;;7.28;6.10;;;;;;;7.03;95.71;95830.78;2068961;28;20841;-64
2022/04/06 02:22:01;;;;;;;8.35;5.55;;;;;;;6.95;95.96;95825.28;2068862;28;20194;-63
2022/04/06 02:23:03;;;;;;;8.40;5.50;;;;;;;6.97;96.15;95833.81;2069964;28;20205;-63
2022/04/06 02:24:05;;;;;;;9.52;6.10;;;;;;;6.71;96.42;95798.16;2068855;28;20591;-63
2022/04/06 02:25:06;;;;;;;12.88;5.63;;;;;;;6.93;96.56;95836.59;2068183;28;20245;-63
2022/04/06 02:26:08;;;;;;;16.27;5.93;;;;;;;6.93;96.68;95839.22;2069891;28;20668;-64
2022/04/06 02:27:09;;;;;;;8.23;5.28;;;;;;;6.82;96.84;95823.50;2066383;28;20218;-64
2022/04/06 02:28:11;;;;;;;7.60;5.93;;;;;;;6.87;97.08;95834.41;2068998;28;20198;-64
2022/04/06 02:29:12;;;;;;;9.25;5.88;;;;;;;6.87;97.23;95837.00;2070292;28;20689;-63
2022/04/06 02:30:14;;;;;;;8.07;6.57;;;;;;;6.87;97.13;95837.00;2069616;28;20225;-64
2022/04/06 02:31:16;;;;;;;8.93;5.63;;;;;;;6.83;97.60;95832.13;2068847;28;20216;-63
2022/04/06 02:32:18;;;;;;;7.40;6.20;;;;;;;6.71;98.06;95813.78;2069564;28;20425;-64
2022/04/06 02:33:25;;;;;;;10.00;5.82;;;;;;;6.73;98.08;95816.28;2068884;28;20194;-63
2022/04/06 02:34:27;;;;;;;11.18;6.68;;;;;;;6.67;98.59;95814.09;2068342;28;20205;-63
2022/04/06 02:35:29;;;;;;;9.02;6.50;;;;;;;6.77;98.88;95824.72;2068809;28;20217;-63
2022/04/06 02:36:30;;;;;;;6.70;6.00;;;;;;;6.67;99.05;95820.13;2067713;28;20206;-63
2022/04/06 02:37:32;;;;;;;7.80;5.60;;;;;;;6.73;99.14;95824.91;2068920;28;20217;-63
2022/04/06 02:38:38;;;;;;;10.55;6.35;;;;;;;6.71;99.58;95825.97;2068482;28;20202;-63
2022/04/06 02:39:40;;;;;;;11.13;7.28;;;;;;;6.74;99.37;95820.53;2069707;28;20787;-63
2022/04/06 02:40:42;;;;;;;10.07;6.68;;;;;;;6.72;99.25;95819.81;2069097;28;20221;-63
2022/04/06 02:41:43;;;;;;;10.20;6.90;;;;;;;6.70;99.54;95822.53;2070499;28;20645;-64
2022/04/06 02:42:45;;;;;;;9.82;6.82;;;;;;;6.63;99.74;95813.44;2070142;28;20204;-63
2022/04/06 02:43:46;;;;;;;6.07;5.47;;;;;;;6.69;100.00;95820.03;2069875;28;20199;-63
2022/04/06 02:44:48;;;;;;;10.98;6.80;;;;;;;6.65;99.86;95818.56;2066866;28;20205;-63
2022/04/06 02:45:49;;;;;;;8.38;6.22;;;;;;;6.57;100.00;95805.22;2069937;28;20214;-63
2022/04/06 02:46:51;;;;;;;9.20;5.85;;;;;;;6.65;100.00;95821.16;2071342;28;20292;-63
2022/04/06 02:47:52;;;;;;;8.98;6.97;;;;;;;6.64;100.00;95819.47;2067327;28;20583;-64
2022/04/06 02:48:53;;;;;;;9.63;6.38;;;;;;;6.65;100.00;95810.75;2071732;28;20197;-63
2022/04/06 02:49:55;;;;;;;11.18;6.78;;;;;;;6.56;100.00;95806.13;2071360;28;20193;-63
2022/04/06 02:50:57;;;;;;;9.48;6.50;;;;;;;6.63;100.00;95821.25;2068196;28;20198;-64
2022/04/06 02:51:59;;;;;;;7.88;6.32;;;;;;;6.63;100.00;95815.22;2070307;28;20266;-64
2022/04/06 02:53:00;;;;;;;10.10;6.30;;;;;;;6.61;100.00;95823.13;2068734;28;20205;-64
2022/04/06 02:54:02;;;;;;;15.93;6.80;;;;;;;6.61;100.00;95822.28;2069442;28;20201;-64
2022/04/06 02:55:04;;;;;;;10.10;7.05;;;;;;;6.63;100.00;95828.22;2068083;28;20206;-64
2022/04/06 02:56:06;;;;;;;9.65;6.85;;;;;;;6.62;100.00;95822.16;2070551;28;20641;-64
2022/04/06 02:57:07;;;;;;;8.93;6.50;;;;;;;6.36;100.00;95777.06;2071714;28;20772;-64
2022/04/06 02:58:09;;;;;;;7.30;5.93;;;;;;;6.61;100.00;95819.69;2071301;28;20201;-65
2022/04/06 02:59:10;;;;;;;7.22;5.75;;;;;;;6.64;100.00;95819.47;2068818;28;20651;-64
2022/04/06 03:00:13;;;;;;;6.95;6.22;;;;;;;6.62;100.00;95822.16;2069053;28;20257;-64
2022/04/06 03:01:15;;;;;;;13.93;7.50;;;;;;;6.51;100.00;95804.69;2065967;28;20655;-64
2022/04/06 03:02:16;;;;;;;7.03;5.68;;;;;;;6.61;100.00;95811.88;2069613;28;20206;-64
2022/04/06 03:03:18;;;;;;;12.85;7.20;;;;;;;6.53;100.00;95792.41;2069505;28;20331;-64
2022/04/06 03:04:20;;;;;;;10.00;6.60;;;;;;;6.47;100.00;95798.00;2067652;28;20272;-64
2022/04/06 03:05:21;;;;;;;12.20;6.32;;;;;;;6.60;100.00;95813.63;2067041;28;20222;-64
2022/04/06 03:06:23;;;;;;;8.35;5.90;;;;;;;6.57;100.00;95810.44;2068842;28;20238;-64
2022/04/06 03:07:24;;;;;;;10.23;6.28;;;;;;;6.61;100.00;95819.69;2068653;28;20198;-64
2022/04/06 03:08:26;;;;;;;12.80;7.20;;;;;;;6.62;100.00;95810.94;2070507;28;20197;-64
2022/04/06 03:09:27;;;;;;;15.02;6.32;;;;;;;6.58;100.00;95806.88;2064909;28;20206;-64
2022/04/06 03:10:28;;;;;;;9.00;6.15;;;;;;;6.51;100.00;95796.03;2066463;28;20292;-64
2022/04/06 03:11:30;;;;;;;11.00;6.20;;;;;;;6.56;100.00;95795.72;2069192;28;20229;-64
2022/04/06 03:12:32;;;;;;;16.15;6.22;;;;;;;6.59;100.00;95800.75;2068834;28;20201;-64
2022/04/06 03:13:33;;;;;;;13.50;6.60;;;;;;;6.57;100.00;95800.84;2067874;28;20211;-64
2022/04/06 03:14:35;;;;;;;8.23;5.93;;;;;;;6.46;100.00;95782.50;2066905;28;20198;-64
2022/04/06 03:15:38;;;;;;;9.10;6.93;;;;;;;6.53;100.00;95791.56;2067704;28;20234;-64
2022/04/06 03:16:39;;;;;;;11.95;6.07;;;;;;;6.54;100.00;95791.44;2068748;28;20206;-64
2022/04/06 03:17:41;;;;;;;9.25;6.55;;;;;;;6.51;100.00;95793.44;2068412;28;20225;-64
2022/04/06 03:18:43;;;;;;;7.63;5.90;;;;;;;6.57;100.00;95792.22;2067575;28;20197;-64
2022/04/06 03:19:44;;;;;;;7.95;5.75;;;;;;;6.46;100.00;95770.31;2068383;28;20206;-64
2022/04/06 03:20:47;;;;;;;6.15;5.20;;;;;;;6.46;100.00;95774.69;2069767;28;20222;-64
2022/04/06 03:21:48;;;;;;;8.88;6.63;;;;;;;6.57;100.00;95787.84;2069010;28;20220;-64
2022/04/06 03:22:50;;;;;;;10.05;5.95;;;;;;;6.57;100.00;95787.84;2069054;28;20220;-64
2022/04/06 03:23:51;;;;;;;8.55;6.10;;;;;;;6.59;100.00;95787.75;2069631;28;20209;-64
2022/04/06 03:24:53;;;;;;;8.95;5.95;;;;;;;6.58;100.00;95786.06;2067745;28;20208;-64
2022/04/06 03:25:54;;;;;;;12.98;5.88;;;;;;;6.49;100.00;95777.09;2066612;28;20209;-64
2022/04/06 03:26:56;;;;;;;6.95;6.03;;;;;;;6.56;100.00;95780.13;2068050;28;20705;-64
2022/04/06 03:27:57;;;;;;;11.95;6.10;;;;;;;6.57;100.00;95785.22;2069678;28;20226;-64
2022/04/06 03:28:59;;;;;;;8.65;6.07;;;;;;;6.54;100.00;95783.66;2070289;28;20551;-64
2022/04/06 03:30:02;;;;;;;9.40;6.40;;;;;;;6.53;100.00;95784.59;2067146;28;20344;-64
2022/04/06 03:31:05;;;;;;;10.13;5.93;;;;;;;6.54;100.00;95786.25;2077070;28;20205;-64
2022/04/06 03:32:08;;;;;;;6.72;5.35;;;;;;;6.48;100.00;95778.03;2074442;28;20240;-63
2022/04/06 03:33:09;;;;;;;8.25;6.55;;;;;;;6.50;100.00;95779.59;2068900;28;20201;-64
2022/04/06 03:34:11;;;;;;;9.60;6.18;;;;;;;6.43;100.00;95767.94;2068801;28;20194;-64
2022/04/06 03:35:13;;;;;;;7.72;6.00;;;;;;;6.52;100.00;95784.69;2067474;28;20229;-64
2022/04/06 03:36:15;;;;;;;8.38;6.85;;;;;;;6.41;100.00;95763.75;2068753;28;20198;-64
2022/04/06 03:37:16;;;;;;;9.38;5.85;;;;;;;6.43;100.00;95774.88;2068099;28;20282;-64
2022/04/06 03:38:18;;;;;;;13.13;6.30;;;;;;;6.34;100.00;95761.53;2066686;28;20207;-64
2022/04/06 03:39:21;;;;;;;12.95;6.88;;;;;;;6.46;100.00;95775.50;2066648;28;20191;-64
2022/04/06 03:40:23;;;;;;;11.63;6.40;;;;;;;6.45;100.00;95780.81;2066746;28;20559;-64
2022/04/06 03:41:24;;;;;;;7.53;6.25;;;;;;;6.45;100.00;95779.06;2068818;28;20198;-64
2022/04/06 03:42:26;;;;;;;10.10;6.50;;;;;;;6.45;100.00;95784.28;2075279;28;20210;-64
2022/04/06 03:43:28;;;;;;;8.55;5.80;;;;;;;6.44;100.00;95781.75;2076815;28;20205;-64
2022/04/06 03:44:30;;;;;;;9.02;6.43;;;;;;;6.43;100.00;95777.47;2069783;28;20586;-64
2022/04/06 03:45:31;;;;;;;7.93;5.68;;;;;;;6.45;100.00;95779.06;2069848;28;20213;-64
2022/04/06 03:46:33;;;;;;;11.18;5.93;;;;;;;6.42;100.00;95776.66;2069896;28;20198;-64
2022/04/06 03:47:44;;;;;;;7.65;4.72;;;;;;;6.43;100.00;95774.88;2069046;28;20241;-64
2022/04/06 03:48:46;;;;;;;12.73;6.90;;;;;;;6.32;100.00;95754.78;2068721;28;20198;-64
2022/04/06 03:49:47;;;;;;;8.88;6.30;;;;;;;6.48;100.00;95773.66;2067463;28;20209;-64
2022/04/06 03:50:50;;;;;;;7.68;5.88;;;;;;;6.46;100.00;95782.50;2068560;28;20201;-64
2022/04/06 03:51:52;;;;;;;11.75;6.82;;;;;;;6.29;100.00;95754.97;2069638;28;20205;-64
2022/04/06 03:52:53;;;;;;;10.18;6.45;;;;;;;6.45;100.00;95776.47;2067535;28;20693;-64
2022/04/06 03:53:55;;;;;;;7.80;5.53;;;;;;;6.45;100.00;95767.81;2069474;28;20205;-63
2022/04/06 03:54:57;;;;;;;11.32;6.10;;;;;;;6.47;100.00;95786.78;2067919;28;20197;-64
2022/04/06 03:55:58;;;;;;;8.68;6.03;;;;;;;6.44;100.00;95777.38;2071112;28;20216;-64
2022/04/06 03:57:00;;;;;;;10.82;6.95;;;;;;;6.47;100.00;95777.19;2065973;28;20202;-64
2022/04/06 03:58:02;;;;;;;10.40;6.25;;;;;;;6.47;100.00;95776.38;2066523;28;20200;-64
2022/04/06 03:59:04;;;;;;;9.35;6.72;;;;;;;6.47;100.00;95777.19;2067870;28;20289;-64
2022/04/06 04:00:08;;;;;;;9.27;6.53;;;;;;;6.46;100.00;95770.31;2067612;28;20736;-64
2022/04/06 04:01:10;;;;;;;10.32;6.30;;;;;;;6.45;100.00;95776.47;2068062;28;20190;-64
2022/04/06 04:02:12;;;;;;;12.20;6.18;;;;;;;6.44;100.00;95766.16;2067871;28;20198;-64
2022/04/06 04:03:13;;;;;;;14.95;6.68;;;;;;;6.45;100.00;95773.88;2069612;28;20297;-64
2022/04/06 04:04:15;;;;;;;11.65;6.88;;;;;;;6.42;100.00;95774.06;2069664;28;20388;-64
2022/04/06 04:05:17;;;;;;;14.25;7.28;;;;;;;6.49;100.00;95775.31;2068071;28;20237;-64
2022/04/06 04:06:19;;;;;;;12.68;6.95;;;;;;;6.31;100.00;95756.56;2066851;28;20232;-64
2022/04/06 04:07:21;;;;;;;14.60;6.90;;;;;;;6.42;100.00;95775.81;2068306;28;20228;-64
2022/04/06 04:08:26;;;;;;;12.77;7.45;;;;;;;6.41;100.00;95776.75;2066033;28;20217;-64
2022/04/06 04:09:29;;;;;;;9.30;6.13;;;;;;;6.40;100.00;95775.09;2071226;28;20641;-63
2022/04/06 04:10:31;;;;;;;11.93;7.40;;;;;;;6.39;100.00;95763.00;2070307;28;20224;-63
2022/04/06 04:11:33;;;;;;;9.70;6.28;;;;;;;6.34;100.00;95760.72;2068236;28;20252;-63
2022/04/06 04:12:35;;;;;;;10.48;7.22;;;;;;;6.37;100.00;95770.94;2068752;28;20202;-63
2022/04/06 04:13:37;;;;;;;14.05;6.25;;;;;;;6.39;100.00;95771.66;2068325;28;20189;-63
2022/04/06 04:14:39;;;;;;;10.13;7.43;;;;;;;6.36;100.00;95768.44;2068190;28;20202;-63
2022/04/06 04:15:40;;;;;;;8.23;6.65;;;;;;;6.27;100.00;95755.09;2067167;28;20221;-63
2022/04/06 04:16:42;;;;;;;8.00;6.57;;;;;;;6.38;100.00;95772.59;2067250;28;20194;-63
2022/04/06 04:17:43;;;;;;;10.63;7.07;;;;;;;6.38;100.00;95770.00;2066448;28;20190;-63
2022/04/06 04:18:45;;;;;;;9.85;6.97;;;;;;;6.36;100.00;95771.03;2066073;28;20194;-63
2022/04/06 04:19:46;;;;;;;11.25;6.57;;;;;;;6.37;100.00;95770.06;2065283;28;20194;-63
2022/04/06 04:20:47;;;;;;;7.95;6.32;;;;;;;6.34;100.00;95768.53;2079167;28;20201;-63
2022/04/06 04:21:49;;;;;;;9.38;6.30;;;;;;;6.21;100.00;95752.03;2078740;28;20201;-63
2022/04/06 04:22:52;;;;;;;9.82;6.50;;;;;;;6.34;100.00;95771.13;2070305;28;20555;-63
2022/04/06 04:23:53;;;;;;;12.60;7.00;;;;;;;6.36;100.00;95768.44;2067352;28;20202;-63
2022/04/06 04:24:55;;;;;;;12.05;7.47;;;;;;;6.31;100.00;95768.72;2065541;28;20205;-63
2022/04/06 04:25:56;;;;;;;9.00;7.03;;;;;;;6.26;100.00;95755.19;2066301;28;20197;-63
2022/04/06 04:26:59;;;;;;;10.20;7.65;;;;;;;6.19;100.00;95739.13;2078893;28;20200;-63
2022/04/06 04:28:00;;;;;;;10.18;7.45;;;;;;;6.17;100.00;95742.78;2079056;28;20201;-63
2022/04/06 04:29:07;;;;;;;10.82;7.40;;;;;;;6.29;100.00;95761.03;2067962;28;20204;-63
2022/04/06 04:30:09;;;;;;;9.00;7.50;;;;;;;6.31;100.00;95763.50;2068282;28;20224;-63
2022/04/06 04:31:11;;;;;;;10.73;7.68;;;;;;;6.16;100.00;95736.75;2071188;28;20201;-63
2022/04/06 04:32:14;;;;;;;12.77;7.22;;;;;;;6.29;100.00;95758.44;2068379;28;20197;-63
2022/04/06 04:33:16;;;;;;;10.48;7.97;;;;;;;6.20;100.00;95751.22;2067570;28;20206;-63
2022/04/06 04:34:17;;;;;;;11.13;7.07;;;;;;;6.14;100.00;95741.22;2068406;28;20205;-63
2022/04/06 04:35:19;;;;;;;10.57;7.35;;;;;;;6.18;100.00;95749.66;2069553;28;20705;-63
2022/04/06 04:36:21;;;;;;;12.70;8.68;;;;;;;6.22;100.00;95757.16;2068257;28;20212;-63
2022/04/06 04:37:22;;;;;;;10.15;8.05;;;;;;;6.27;100.00;95759.44;2067604;28;20198;-63
2022/04/06 04:38:24;;;;;;;13.45;9.20;;;;;;;6.23;100.00;95752.78;2068774;28;20195;-64
2022/04/06 04:39:26;;;;;;;15.07;7.97;;;;;;;6.26;100.00;95757.78;2070458;28;20193;-64
2022/04/06 04:40:27;;;;;;;16.45;9.05;;;;;;;6.23;100.00;95743.19;2065844;28;20221;-64
2022/04/06 04:41:29;;;;;;;12.90;8.82;;;;;;;6.28;100.00;95745.53;2064920;28;20217;-64
2022/04/06 04:42:30;;;;;;;10.65;8.07;;;;;;;6.21;100.00;95749.44;2065714;28;20205;-65
2022/04/06 04:43:32;;;;;;;12.43;8.40;;;;;;;6.25;100.00;95748.31;2066220;28;20205;-64
2022/04/06 04:44:34;;;;;;;11.45;8.35;;;;;;;6.21;100.00;95741.63;2067699;28;20634;-64
2022/04/06 04:45:35;;;;;;;9.52;7.72;;;;;;;6.11;100.00;95729.22;2067133;28;20257;-64
2022/04/06 04:46:37;;;;;;;12.55;9.60;;;;;;;6.28;100.00;95758.53;2067444;28;20205;-65
2022/04/06 04:47:39;;;;;;;11.88;7.70;;;;;;;6.25;100.00;95750.91;2066142;28;20315;-64
2022/04/06 04:48:41;;;;;;;13.40;9.30;;;;;;;6.30;100.00;95757.47;2065601;28;20677;-64
2022/04/06 04:49:43;;;;;;;11.60;8.50;;;;;;;6.16;100.00;95731.56;2078831;28;20205;-64
2022/04/06 04:50:44;;;;;;;11.35;8.73;;;;;;;6.27;100.00;95754.25;2078207;28;20220;-64
2022/04/06 04:51:46;;;;;;;12.27;8.70;;;;;;;6.26;100.00;95758.63;2070191;28;20203;-64
2022/04/06 04:52:47;;;;;;;46.97;25.92;;;;;;;6.31;100.00;95755.69;2069431;28;20197;-64
2022/04/06 04:53:49;;;;;;;19.17;10.90;;;;;;;6.16;100.00;95731.56;2067009;28;20197;-64
2022/04/06 04:54:50;;;;;;;16.17;11.65;;;;;;;6.29;100.00;95747.16;2067953;28;20201;-64
2022/04/06 04:55:53;;;;;;;56.05;31.63;;;;;;;6.30;100.00;95752.28;2068474;28;20669;-60
2022/04/06 04:56:55;;;;;;;29.65;19.40;;;;;;;6.31;100.00;95755.69;2067349;28;20249;-61
2022/04/06 04:57:56;;;;;;;19.60;12.25;;;;;;;6.32;100.00;95760.00;2067737;28;20213;-60